Time;durP1;ratioP1;P1;durP2;ratioP2;P2;SDS_P1;SDS_P2;PMS_P1;PMS_P2;Temp;Humidity;BMP_temperature;BMP_pressure;BME280_temperature;BME280_humidity;BME280_pressure;Samples;Min_cycle;Max_cycle;Signal;HPM_P1;HPM_P2
2024/01/18 00:01:54;;;;;;;0.20;0.20;;;;;;;3.02;85.99;96550.53;5084084;28;20060;-63
2024/01/18 00:04:20;;;;;;;0.20;0.20;;;;;;;3.00;86.42;96575.47;5083253;28;20058;-64
2024/01/18 00:06:47;;;;;;;0.20;0.20;;;;;;;2.11;90.63;96574.22;5083928;28;20051;-64
2024/01/18 00:09:14;;;;;;;0.20;0.20;;;;;;;2.41;90.94;96573.94;5082752;28;20072;-64
2024/01/18 00:11:41;;;;;;;0.22;0.22;;;;;;;1.58;90.14;96447.25;5082829;28;20044;-63
2024/01/18 00:14:08;;;;;;;0.20;0.20;;;;;;;2.46;89.14;96538.22;5084508;28;20070;-65
2024/01/18 00:16:35;;;;;;;0.20;0.20;;;;;;;2.49;88.47;96521.16;5083612;28;20135;-64
2024/01/18 00:19:01;;;;;;;0.22;0.22;;;;;;;2.75;87.62;96562.00;5084240;28;20105;-65
2024/01/18 00:21:28;;;;;;;0.30;0.30;;;;;;;2.20;87.87;96473.91;5082282;28;20651;-65
2024/01/18 00:23:55;;;;;;;0.20;0.20;;;;;;;2.31;88.41;96507.94;5084037;28;20086;-65
2024/01/18 00:26:22;;;;;;;0.30;0.30;;;;;;;2.86;87.35;96569.47;5081976;28;20581;-64
2024/01/18 00:28:49;;;;;;;0.30;0.30;;;;;;;2.70;86.75;96537.59;5084022;28;20052;-64
2024/01/18 00:31:16;;;;;;;0.20;0.20;;;;;;;2.80;86.25;96548.13;5082697;28;20059;-64
2024/01/18 00:33:43;;;;;;;0.20;0.20;;;;;;;3.01;85.78;96565.34;5083980;28;20598;-65
2024/01/18 00:36:10;;;;;;;0.30;0.30;;;;;;;2.91;86.56;96554.78;5083444;28;20739;-64
2024/01/18 00:38:37;;;;;;;0.20;0.20;;;;;;;3.05;86.40;96560.81;5083772;28;20047;-64
2024/01/18 00:41:04;;;;;;;0.30;0.30;;;;;;;2.02;85.71;96395.97;5083321;28;20514;-64
2024/01/18 00:43:31;;;;;;;0.28;0.28;;;;;;;3.08;85.46;96560.16;5083575;28;20176;-64
2024/01/18 00:46:03;;;;;;;0.20;0.20;;;;;;;3.14;85.47;96572.50;5083444;28;20533;-65
2024/01/18 00:48:30;;;;;;;0.30;0.30;;;;;;;3.11;85.21;96543.06;5084148;28;20121;-64
2024/01/18 00:50:57;;;;;;;0.20;0.20;;;;;;;3.10;85.66;96547.72;5083666;28;20048;-64
2024/01/18 00:53:24;;;;;;;0.30;0.30;;;;;;;3.19;85.22;96550.41;5083937;28;20052;-66
2024/01/18 00:55:52;;;;;;;0.30;0.30;;;;;;;2.78;85.63;96510.16;5083450;28;20059;-64
2024/01/18 00:58:19;;;;;;;0.28;0.28;;;;;;;3.23;85.83;96551.31;5083928;28;20048;-65
2024/01/18 01:00:47;;;;;;;0.20;0.20;;;;;;;3.25;84.90;96532.63;5083802;28;20112;-64
2024/01/18 01:03:14;;;;;;;0.30;0.30;;;;;;;3.13;84.84;96485.28;5082221;28;20521;-63
2024/01/18 01:05:41;;;;;;;0.30;0.30;;;;;;;3.40;85.14;96528.47;5083560;28;20060;-65
2024/01/18 01:08:07;;;;;;;0.30;0.30;;;;;;;2.98;85.41;96471.09;5083725;28;20047;-64
2024/01/18 01:10:34;;;;;;;0.20;0.20;;;;;;;3.26;84.77;96484.97;5082117;28;20156;-64
2024/01/18 01:13:01;;;;;;;0.20;0.20;;;;;;;3.57;84.18;96518.16;5084136;28;20052;-64
2024/01/18 01:15:28;;;;;;;0.22;0.22;;;;;;;3.58;84.10;96497.84;5083529;28;20063;-63
2024/01/18 01:17:55;;;;;;;0.20;0.20;;;;;;;3.09;83.87;96441.38;5082477;28;20075;-64
2024/01/18 01:20:22;;;;;;;0.20;0.20;;;;;;;3.65;83.70;96506.28;5083263;28;20101;-64
2024/01/18 01:22:48;;;;;;;0.20;0.20;;;;;;;3.50;84.18;96528.84;5083599;28;20044;-64
2024/01/18 01:25:15;;;;;;;0.20;0.20;;;;;;;3.50;84.49;96465.06;5077621;28;20053;-64
2024/01/18 01:27:42;;;;;;;0.30;0.30;;;;;;;3.79;83.75;96492.28;5063202;28;20056;-63
2024/01/18 01:30:10;;;;;;;0.20;0.20;;;;;;;3.83;84.02;96488.53;5078894;28;20053;-64
2024/01/18 01:32:37;;;;;;;0.20;0.20;;;;;;;3.96;83.07;96490.16;5063139;28;20045;-66
2024/01/18 01:35:05;;;;;;;0.20;0.20;;;;;;;3.24;82.77;96366.06;5063296;28;20056;-64
2024/01/18 01:37:32;;;;;;;0.30;0.30;;;;;;;3.93;83.29;96482.63;5062757;28;20586;-65
2024/01/18 01:39:59;;;;;;;0.30;0.30;;;;;;;3.87;83.35;96472.22;5085218;28;20105;-64
2024/01/18 01:42:26;;;;;;;0.30;0.30;;;;;;;3.94;83.07;96489.69;5086662;28;20082;-64
2024/01/18 01:44:54;;;;;;;0.20;0.20;;;;;;;3.23;83.37;96392.59;5087106;28;20134;-66
2024/01/18 01:47:21;;;;;;;0.20;0.20;;;;;;;1.46;83.13;96065.19;5085535;28;20098;-64
2024/01/18 01:49:48;;;;;;;0.30;0.30;;;;;;;3.37;82.46;96343.03;5086659;28;20135;-65
2024/01/18 01:52:16;;;;;;;0.30;0.30;;;;;;;3.72;82.71;96409.88;5086496;28;20480;-65
2024/01/18 01:54:46;;;;;;;0.22;0.22;;;;;;;4.07;83.59;96463.91;5086912;28;20126;-65
2024/01/18 01:57:15;;;;;;;0.30;0.30;;;;;;;4.14;83.39;96461.38;5087068;28;20079;-65
2024/01/18 01:59:42;;;;;;;0.30;0.30;;;;;;;3.77;83.63;96415.94;5086493;28;20142;-64
2024/01/18 02:02:10;;;;;;;0.30;0.30;;;;;;;3.31;83.55;96295.94;5086701;28;20845;-64
2024/01/18 02:04:37;;;;;;;0.20;0.20;;;;;;;4.26;83.49;96453.16;5085395;28;20048;-65
2024/01/18 02:07:05;;;;;;;0.30;0.30;;;;;;;4.02;83.81;96414.81;5086282;28;20052;-65
2024/01/18 02:09:32;;;;;;;0.30;0.30;;;;;;;4.26;84.25;96442.19;5084515;28;20473;-65
2024/01/18 02:12:02;;;;;;;0.30;0.30;;;;;;;4.30;84.22;96443.09;5085210;28;20286;-64
2024/01/18 02:14:29;;;;;;;0.20;0.20;;;;;;;3.93;83.77;96407.84;5085165;28;20064;-63
2024/01/18 02:16:56;;;;;;;0.30;0.30;;;;;;;4.24;83.82;96438.97;5086238;28;20418;-65
2024/01/18 02:19:23;;;;;;;0.30;0.30;;;;;;;3.88;83.97;96377.94;5086484;28;20067;-65
2024/01/18 02:21:50;;;;;;;0.22;0.22;;;;;;;4.29;83.21;96435.19;5085802;28;20048;-64
2024/01/18 02:24:20;;;;;;;0.30;0.30;;;;;;;4.13;84.28;96432.38;5084939;28;20044;-66
2024/01/18 02:26:47;;;;;;;0.20;0.20;;;;;;;3.97;84.99;96420.50;5085907;28;20060;-64
2024/01/18 02:29:14;;;;;;;0.30;0.30;;;;;;;3.95;85.35;96431.00;5084947;28;20536;-64
2024/01/18 02:31:41;;;;;;;0.20;0.20;;;;;;;3.89;85.89;96415.94;5085693;28;20498;-65
2024/01/18 02:34:10;;;;;;;0.20;0.20;;;;;;;3.90;86.54;96422.22;5086336;28;20048;-63
2024/01/18 02:36:37;;;;;;;0.30;0.30;;;;;;;4.03;86.90;96423.81;5085700;28;20059;-65
2024/01/18 02:39:04;;;;;;;0.30;0.30;;;;;;;4.03;87.33;96426.56;5085907;28;20048;-66
2024/01/18 02:41:32;;;;;;;0.30;0.30;;;;;;;3.42;87.38;96340.06;5085780;28;20541;-66
2024/01/18 02:44:02;;;;;;;0.30;0.30;;;;;;;3.97;87.96;96433.41;5086187;28;20048;-68
2024/01/18 02:46:33;;;;;;;0.30;0.30;;;;;;;3.48;87.80;96347.69;5084415;28;20052;-68
2024/01/18 02:49:00;;;;;;;0.28;0.28;;;;;;;3.98;88.07;96430.31;5086104;28;20083;-68
2024/01/18 02:51:27;;;;;;;0.20;0.20;;;;;;;3.93;88.99;96433.31;5084050;28;20055;-68
2024/01/18 02:53:54;;;;;;;0.30;0.30;;;;;;;3.24;89.10;96312.09;5100653;28;20044;-68
2024/01/18 02:56:21;;;;;;;0.30;0.30;;;;;;;3.99;89.31;96415.50;5085182;28;20062;-68
2024/01/18 02:58:48;;;;;;;0.20;0.20;;;;;;;3.63;90.21;96379.91;5085464;28;20048;-67
2024/01/18 03:01:15;;;;;;;0.30;0.30;;;;;;;3.92;90.99;96423.47;5085458;28;20058;-67
2024/01/18 03:03:42;;;;;;;0.20;0.20;;;;;;;2.74;90.76;96237.75;5085739;28;20059;-67
2024/01/18 03:06:09;;;;;;;0.20;0.20;;;;;;;3.87;91.41;96423.69;5085025;28;20063;-67
2024/01/18 03:08:36;;;;;;;0.20;0.20;;;;;;;3.97;91.02;96417.75;5085376;28;20050;-67
2024/01/18 03:11:03;;;;;;;0.30;0.30;;;;;;;3.93;91.29;96419.59;5085228;28;20052;-67
2024/01/18 03:13:31;;;;;;;0.30;0.30;;;;;;;3.96;91.54;96416.19;5085363;28;20048;-67
2024/01/18 03:15:58;;;;;;;0.30;0.30;;;;;;;3.96;92.22;96416.19;5085062;28;20054;-68
2024/01/18 03:18:24;;;;;;;0.22;0.22;;;;;;;3.21;92.59;96285.44;5085423;28;20528;-68
2024/01/18 03:20:51;;;;;;;0.30;0.30;;;;;;;3.66;92.21;96368.25;5084966;28;20422;-68
2024/01/18 03:23:18;;;;;;;0.20;0.20;;;;;;;3.94;92.91;96431.34;5085284;28;20514;-68
2024/01/18 03:25:45;;;;;;;0.30;0.30;;;;;;;3.92;93.58;96401.56;5084548;28;20048;-69
2024/01/18 03:28:11;;;;;;;0.30;0.30;;;;;;;3.61;93.71;96353.97;5100168;28;20052;-67
2024/01/18 03:30:40;;;;;;;0.25;0.25;;;;;;;4.01;94.17;96391.28;5100160;28;20052;-67
2024/01/18 03:33:07;;;;;;;0.20;0.20;;;;;;;3.25;93.54;96291.03;5084979;28;20058;-67
2024/01/18 03:35:34;;;;;;;0.20;0.20;;;;;;;3.97;94.27;96469.81;5100113;28;20329;-68
2024/01/18 03:38:01;;;;;;;0.30;0.30;;;;;;;3.95;94.73;96392.66;5083537;28;20329;-67
2024/01/18 03:40:28;;;;;;;0.30;0.30;;;;;;;4.02;94.64;96392.88;5084623;28;20048;-67
2024/01/18 03:42:55;;;;;;;0.30;0.30;;;;;;;4.08;94.61;96413.41;5083384;28;20403;-68
2024/01/18 03:45:22;;;;;;;0.30;0.30;;;;;;;3.39;95.05;96275.88;5084882;28;20491;-67
2024/01/18 03:47:49;;;;;;;0.20;0.20;;;;;;;4.16;94.71;96392.50;5084388;28;20059;-67
2024/01/18 03:50:15;;;;;;;0.30;0.30;;;;;;;3.83;96.21;96394.59;5084246;28;20383;-68
2024/01/18 03:52:42;;;;;;;0.20;0.20;;;;;;;3.19;100.00;96374.47;5082862;28;20083;-68
2024/01/18 03:55:10;;;;;;;0.20;0.20;;;;;;;3.52;100.00;96377.94;5084089;28;20407;-68
2024/01/18 03:57:37;;;;;;;0.30;0.30;;;;;;;3.76;100.00;96395.16;5082926;28;20048;-68
2024/01/18 04:00:05;;;;;;;0.30;0.30;;;;;;;3.77;100.00;96391.31;5082828;28;20431;-67
2024/01/18 04:02:32;;;;;;;0.30;0.30;;;;;;;3.65;99.74;96349.44;5083938;28;20078;-69
2024/01/18 04:04:58;;;;;;;0.30;0.30;;;;;;;3.03;99.37;96259.44;5084217;28;20059;-68
2024/01/18 04:07:25;;;;;;;0.30;0.30;;;;;;;3.27;98.97;96288.75;5084160;28;20143;-68
2024/01/18 04:09:52;;;;;;;0.20;0.20;;;;;;;3.89;99.32;96388.53;5082904;28;20078;-68
2024/01/18 04:12:19;;;;;;;0.30;0.30;;;;;;;3.70;98.95;96344.50;5084179;28;20257;-67
2024/01/18 04:14:45;;;;;;;0.30;0.30;;;;;;;3.95;98.23;96383.66;5082780;28;20063;-67
2024/01/18 04:17:12;;;;;;;0.30;0.30;;;;;;;3.39;97.99;96325.13;5083760;28;20616;-66
2024/01/18 04:19:39;;;;;;;0.30;0.30;;;;;;;3.86;97.98;96391.97;5082536;28;20044;-67
2024/01/18 04:22:07;;;;;;;0.30;0.30;;;;;;;3.86;98.86;96404.88;5082482;28;20815;-66
2024/01/18 04:24:34;;;;;;;0.20;0.20;;;;;;;3.79;98.63;96408.19;5084440;28;20055;-66
2024/01/18 04:27:01;;;;;;;0.20;0.20;;;;;;;3.78;99.14;96398.38;5082531;28;20388;-66
2024/01/18 04:29:31;;;;;;;0.30;0.30;;;;;;;3.78;99.14;96401.09;5082765;28;20152;-66
2024/01/18 04:31:58;;;;;;;0.30;0.30;;;;;;;3.46;99.49;96374.63;5084102;28;20044;-66
2024/01/18 04:34:25;;;;;;;0.20;0.20;;;;;;;3.66;99.86;96412.06;5083879;28;20058;-66
2024/01/18 04:36:52;;;;;;;0.20;0.20;;;;;;;3.48;100.00;96350.44;5082325;28;20070;-65
2024/01/18 04:39:18;;;;;;;0.30;0.30;;;;;;;3.31;99.38;96317.81;5082145;28;20047;-66
2024/01/18 04:41:45;;;;;;;0.30;0.30;;;;;;;3.86;99.47;96388.44;5083789;28;20144;-65
2024/01/18 04:44:13;;;;;;;0.20;0.20;;;;;;;3.47;99.21;96332.44;5083927;28;20055;-65
2024/01/18 04:46:40;;;;;;;0.20;0.20;;;;;;;3.30;99.35;96299.81;5082093;28;20052;-66
2024/01/18 04:49:06;;;;;;;0.20;0.20;;;;;;;3.46;98.14;96328.09;5083786;28;20532;-67
2024/01/18 04:51:33;;;;;;;0.20;0.20;;;;;;;3.43;98.75;96319.78;5083702;28;20051;-67
2024/01/18 04:54:00;;;;;;;0.20;0.20;;;;;;;3.17;99.07;96272.78;5084137;28;20050;-68
2024/01/18 04:56:27;;;;;;;0.30;0.30;;;;;;;4.00;99.57;96394.38;5082043;28;20066;-67
2024/01/18 04:58:54;;;;;;;0.20;0.20;;;;;;;4.07;99.05;96397.31;5082005;28;20071;-68
2024/01/18 05:01:20;;;;;;;0.30;0.30;;;;;;;3.77;98.35;96363.91;5083580;28;20048;-69
2024/01/18 05:03:47;;;;;;;0.30;0.30;;;;;;;1.41;97.96;95972.63;5083863;28;20498;-65
2024/01/18 05:06:14;;;;;;;0.20;0.20;;;;;;;4.12;98.66;96397.09;5083756;28;20136;-65
2024/01/18 05:08:41;;;;;;;0.30;0.30;;;;;;;2.90;98.95;96238.69;5099304;28;20063;-66
2024/01/18 05:11:08;;;;;;;0.30;0.30;;;;;;;3.20;98.45;96228.31;5083375;28;20399;-65
2024/01/18 05:13:35;;;;;;;0.28;0.28;;;;;;;3.97;98.84;96351.22;5100271;28;20408;-64
2024/01/18 05:16:02;;;;;;;0.30;0.30;;;;;;;4.24;98.17;96395.13;5087474;28;20398;-65
2024/01/18 05:18:29;;;;;;;0.30;0.30;;;;;;;3.96;99.77;96388.78;5085801;28;20051;-66
2024/01/18 05:20:56;;;;;;;0.20;0.20;;;;;;;3.08;100.00;96324.88;5087039;28;20064;-65
2024/01/18 05:23:23;;;;;;;0.30;0.30;;;;;;;3.67;100.00;96397.22;5087099;28;20059;-66
2024/01/18 05:25:50;;;;;;;0.30;0.30;;;;;;;3.25;100.00;96323.84;5086578;28;20861;-65
2024/01/18 05:28:16;;;;;;;0.30;0.30;;;;;;;3.36;100.00;96314.88;4356448;28;10000430;-63
2024/01/18 05:30:43;;;;;;;0.20;0.20;;;;;;;3.72;100.00;96372.34;5087856;28;20048;-64
2024/01/18 05:33:10;;;;;;;0.20;0.20;;;;;;;3.93;100.00;96384.00;5087265;28;20079;-65
2024/01/18 05:35:37;;;;;;;0.30;0.30;;;;;;;4.01;100.00;96383.06;5087197;28;20056;-66
2024/01/18 05:38:04;;;;;;;0.20;0.20;;;;;;;3.96;100.00;96388.78;5085556;28;20439;-65
2024/01/18 05:40:31;;;;;;;0.28;0.28;;;;;;;3.99;100.00;96431.94;5086514;28;20573;-65
2024/01/18 05:42:58;;;;;;;0.30;0.30;;;;;;;3.94;100.00;96396.53;5087210;28;20059;-65
2024/01/18 05:45:25;;;;;;;0.30;0.30;;;;;;;4.02;100.00;96387.41;5086142;28;20044;-66
2024/01/18 05:47:52;;;;;;;0.30;0.30;;;;;;;3.75;100.00;96349.75;5087059;28;20052;-64
2024/01/18 05:50:19;;;;;;;0.28;0.28;;;;;;;4.00;100.00;96389.69;5086761;28;20051;-65
2024/01/18 05:52:46;;;;;;;0.20;0.20;;;;;;;3.91;100.00;96377.25;5086709;28;20136;-64
2024/01/18 05:55:13;;;;;;;0.28;0.28;;;;;;;3.92;100.00;96363.19;5084823;28;20059;-65
2024/01/18 05:57:41;;;;;;;0.22;0.22;;;;;;;4.12;100.00;96389.69;5085249;28;20166;-65
2024/01/18 06:00:09;;;;;;;0.30;0.30;;;;;;;3.89;100.00;96354.91;5084801;28;20534;-65
2024/01/18 06:02:36;;;;;;;0.30;0.30;;;;;;;4.04;99.98;96367.88;5086109;28;20465;-65
2024/01/18 06:05:03;;;;;;;0.30;0.30;;;;;;;3.57;100.00;96292.84;5086029;28;20055;-65
2024/01/18 06:07:30;;;;;;;0.30;0.30;;;;;;;4.15;99.52;96380.78;5086181;28;20534;-65
2024/01/18 06:09:56;;;;;;;0.30;0.30;;;;;;;3.76;99.79;96307.53;5086264;28;20533;-65
2024/01/18 06:12:23;;;;;;;0.30;0.30;;;;;;;4.03;100.00;96366.28;5085895;28;20047;-65
2024/01/18 06:14:50;;;;;;;0.22;0.22;;;;;;;3.42;100.00;96280.66;5059261;28;20105;-65
2024/01/18 06:17:17;;;;;;;0.30;0.30;;;;;;;4.14;100.00;96384.63;5086252;28;20148;-65
2024/01/18 06:19:44;;;;;;;0.30;0.30;;;;;;;3.30;100.00;96266.97;5084849;28;20052;-65
2024/01/18 06:22:11;;;;;;;0.30;0.30;;;;;;;4.11;100.00;96379.84;5085864;28;20059;-63
2024/01/18 06:24:38;;;;;;;0.25;0.25;;;;;;;3.89;100.00;96361.16;5084058;28;20059;-64
2024/01/18 06:27:05;;;;;;;0.20;0.20;;;;;;;3.33;100.00;96252.59;5085575;28;20534;-64
2024/01/18 06:29:32;;;;;;;0.20;0.20;;;;;;;4.15;100.00;96386.25;5086523;28;20051;-62
2024/01/18 06:31:59;;;;;;;0.28;0.28;;;;;;;3.42;100.00;96247.81;5085518;28;20139;-62
2024/01/18 06:34:28;;;;;;;0.30;0.30;;;;;;;4.36;100.00;96381.38;5086186;28;20084;-64
2024/01/18 06:36:54;;;;;;;0.20;0.20;;;;;;;3.79;100.00;96287.69;5084713;28;20064;-64
2024/01/18 06:39:21;;;;;;;0.30;0.30;;;;;;;3.95;100.00;96315.16;5085651;28;20051;-64
2024/01/18 06:41:48;;;;;;;0.30;0.30;;;;;;;3.01;100.00;96179.66;4733393;28;10001504;-65
2024/01/18 06:44:15;;;;;;;0.20;0.20;;;;;;;4.09;100.00;96330.09;5085726;28;20048;-64
2024/01/18 06:46:42;;;;;;;0.30;0.30;;;;;;;4.22;100.00;96328.88;5085384;28;20044;-61
2024/01/18 06:49:08;;;;;;;0.25;0.25;;;;;;;4.10;100.00;96290.56;4733463;28;10001365;-64
2024/01/18 06:51:35;;;;;;;0.30;0.30;;;;;;;3.21;100.00;96140.41;5081844;28;20055;-64
2024/01/18 06:54:02;;;;;;;0.20;0.20;;;;;;;3.85;100.00;96247.97;5069919;28;20044;-66
2024/01/18 06:56:29;;;;;;;0.30;0.30;;;;;;;2.38;100.00;96038.22;5064180;28;20067;-75
2024/01/18 06:58:56;;;;;;;0.30;0.30;;;;;;;4.71;100.00;96348.69;5062844;28;20062;-70
2024/01/18 07:01:23;;;;;;;0.30;0.30;;;;;;;4.50;100.00;96310.50;5070527;28;20047;-66
2024/01/18 07:03:50;;;;;;;0.30;0.30;;;;;;;4.88;100.00;96358.59;5084762;28;20192;-68
2024/01/18 07:06:17;;;;;;;0.30;0.30;;;;;;;4.96;100.00;96346.66;5082702;28;20063;-73
2024/01/18 07:08:43;;;;;;;0.30;0.30;;;;;;;4.96;100.00;96343.91;5082643;28;20550;-70
2024/01/18 07:11:10;;;;;;;0.30;0.30;;;;;;;5.04;100.00;96346.50;5082350;28;20437;-68
2024/01/18 07:13:37;;;;;;;0.30;0.30;;;;;;;5.12;100.00;96342.78;5083601;28;20044;-65
2024/01/18 07:16:06;;;;;;;0.30;0.30;;;;;;;4.64;100.00;96305.44;5083768;28;20086;-66
2024/01/18 07:18:33;;;;;;;0.30;0.30;;;;;;;4.93;100.00;96300.72;5083712;28;20052;-70
2024/01/18 07:21:00;;;;;;;0.30;0.30;;;;;;;5.14;100.00;96340.47;5082982;28;20552;-68
2024/01/18 07:23:28;;;;;;;0.30;0.30;;;;;;;4.14;100.00;96186.56;5082005;28;20510;-73
2024/01/18 07:25:54;;;;;;;0.30;0.30;;;;;;;5.24;100.00;96326.25;5083304;28;20067;-62
2024/01/18 07:28:21;;;;;;;0.30;0.30;;;;;;;3.55;100.00;96082.41;5083263;28;20518;-69
2024/01/18 07:30:48;;;;;;;0.30;0.30;;;;;;;4.75;100.00;96233.59;5069504;28;20048;-66
2024/01/18 07:33:16;;;;;;;0.30;0.30;;;;;;;4.60;100.00;96205.81;5073562;28;20119;-68
2024/01/18 07:35:45;;;;;;;0.30;0.30;;;;;;;4.06;100.00;96078.69;5082926;28;20222;-73
2024/01/18 07:38:13;;;;;;;0.30;0.30;;;;;;;5.48;100.00;96278.59;5076562;28;20056;-68
2024/01/18 07:40:40;;;;;;;0.30;0.30;;;;;;;5.88;98.47;96331.38;5076026;28;21053;-68
2024/01/18 07:43:07;;;;;;;0.30;0.30;;;;;;;5.65;97.69;96291.94;5065987;28;20053;-83
2024/01/18 07:45:34;;;;;;;0.30;0.30;;;;;;;5.99;97.44;96326.94;5072963;28;20052;-71
2024/01/18 07:48:01;;;;;;;0.30;0.30;;;;;;;6.02;96.87;96334.44;5082998;28;20075;-69
2024/01/18 07:50:28;;;;;;;0.30;0.30;;;;;;;6.05;96.74;96336.47;5080369;28;20043;-73
2024/01/18 07:53:02;;;;;;;0.32;0.32;;;;;;;5.23;96.26;96178.34;5079064;28;20150;-74
2024/01/18 07:55:30;;;;;;;0.30;0.30;;;;;;;6.22;96.32;96324.28;5082076;28;20051;-67
2024/01/18 07:57:57;;;;;;;0.30;0.30;;;;;;;6.42;96.87;96323.94;5083664;28;20498;-67
2024/01/18 08:00:24;;;;;;;0.40;0.40;;;;;;;5.59;96.77;96178.00;5115671;27;20552;-70
2024/01/18 08:02:51;;;;;;;0.35;0.35;;;;;;;6.62;97.19;96311.78;5083227;28;20199;-68
2024/01/18 08:05:18;;;;;;;0.40;0.40;;;;;;;6.89;96.42;96310.72;5080114;28;20060;-71
2024/01/18 08:07:45;;;;;;;0.30;0.30;;;;;;;6.63;95.46;96313.38;5082240;28;20109;-74
2024/01/18 08:10:12;;;;;;;0.30;0.30;;;;;;;6.79;95.78;96322.34;5083437;28;20667;-69
2024/01/18 08:12:42;;;;;;;0.30;0.30;;;;;;;5.66;96.57;96164.41;5083662;28;20056;-69
2024/01/18 08:15:11;;;;;;;0.30;0.30;;;;;;;5.88;97.10;96210.47;5077988;28;20526;-76
2024/01/18 08:17:38;;;;;;;0.40;0.40;;;;;;;6.72;97.66;96308.44;5061738;28;20070;-60
2024/01/18 08:20:12;;;;;;;0.40;0.40;;;;;;;6.48;97.08;96256.47;5054605;28;20155;-71
2024/01/18 08:22:40;;;;;;;0.30;0.30;;;;;;;6.75;98.12;96304.19;5063306;28;20057;-74
2024/01/18 08:25:10;;;;;;;0.30;0.30;;;;;;;6.61;97.19;96271.66;5064526;28;20147;-62
2024/01/18 08:27:41;;;;;;;0.30;0.30;;;;;;;6.41;96.68;96181.28;5071753;28;20588;-66
2024/01/18 08:30:09;;;;;;;0.30;0.30;;;;;;;7.32;94.02;96288.31;5079768;28;20113;-67
2024/01/18 08:32:36;;;;;;;0.30;0.30;;;;;;;6.44;94.22;96128.28;5082229;28;20052;-67
2024/01/18 08:35:07;;;;;;;0.40;0.40;;;;;;;7.65;90.91;96282.97;5081873;28;20701;-65
2024/01/18 08:37:35;;;;;;;0.30;0.30;;;;;;;7.48;91.29;96277.16;5077262;28;20052;-68
2024/01/18 08:40:03;;;;;;;0.38;0.38;;;;;;;7.24;91.61;96206.72;5073143;28;20667;-76
2024/01/18 08:42:30;;;;;;;0.40;0.40;;;;;;;6.82;93.60;96239.06;5081272;28;20048;-63
2024/01/18 08:44:57;;;;;;;0.38;0.38;;;;;;;7.45;93.49;96267.69;5077921;28;20070;-69
2024/01/18 08:47:26;;;;;;;0.40;0.40;;;;;;;6.62;92.96;96163.22;5076799;28;20951;-70
2024/01/18 08:49:53;;;;;;;0.40;0.40;;;;;;;6.93;94.09;96198.75;5085695;28;20044;-68
2024/01/18 08:52:21;;;;;;;0.38;0.38;;;;;;;6.97;94.08;96180.31;5083475;28;20060;-73
2024/01/18 08:54:49;;;;;;;0.40;0.40;;;;;;;7.68;92.74;96254.66;5085076;28;20502;-67
2024/01/18 08:57:17;;;;;;;0.35;0.35;;;;;;;7.10;92.26;96173.47;5084671;28;21016;-68
2024/01/18 09:00:36;;;;;;;0.40;0.40;;;;;;;7.85;92.87;96236.00;5060326;28;20770;-69
2024/01/18 09:03:03;;;;;;;0.30;0.30;;;;;;;7.93;92.65;96229.41;5059207;28;20056;-68
2024/01/18 09:05:30;;;;;;;0.40;0.40;;;;;;;7.45;92.19;96118.91;5059929;28;20048;-68
2024/01/18 09:07:57;;;;;;;0.50;0.50;;;;;;;8.17;91.16;96212.41;5060476;28;20138;-68
2024/01/18 09:10:27;;;;;;;0.40;0.40;;;;;;;7.88;91.33;96131.28;5060065;28;20049;-67
2024/01/18 09:12:54;;;;;;;0.38;0.38;;;;;;;7.96;90.91;96148.69;5060378;28;20529;-67
2024/01/18 09:15:22;;;;;;;0.40;0.40;;;;;;;8.00;90.80;96113.72;5060123;28;20064;-67
2024/01/18 09:17:48;;;;;;;0.40;0.40;;;;;;;8.22;90.53;96140.38;5060129;28;20145;-67
2024/01/18 09:20:15;;;;;;;0.40;0.40;;;;;;;8.55;91.60;96198.31;5059603;28;20063;-68
2024/01/18 09:22:42;;;;;;;0.40;0.40;;;;;;;8.56;91.52;96128.13;5060140;28;20063;-68
2024/01/18 09:25:10;;;;;;;0.40;0.40;;;;;;;9.09;89.50;96173.59;5059860;28;20049;-67
2024/01/18 09:27:37;;;;;;;0.40;0.40;;;;;;;8.75;87.64;96122.41;5059774;28;20052;-68
2024/01/18 09:30:04;;;;;;;0.50;0.50;;;;;;;8.36;86.15;96010.88;5060196;28;20044;-67
2024/01/18 09:32:31;;;;;;;0.45;0.45;;;;;;;9.52;86.14;96147.84;5058457;28;20052;-68
2024/01/18 09:34:58;;;;;;;0.40;0.40;;;;;;;9.80;85.25;96141.72;5060178;28;20132;-67
2024/01/18 09:37:25;;;;;;;0.40;0.40;;;;;;;9.70;82.17;96126.66;5058107;28;20060;-68
2024/01/18 09:39:51;;;;;;;0.50;0.50;;;;;;;8.89;85.06;96097.66;5058501;28;20059;-66
2024/01/18 09:42:21;;;;;;;0.50;0.50;;;;;;;9.47;83.41;96139.16;5038743;28;20062;-66
2024/01/18 09:44:48;;;;;;;0.40;0.40;;;;;;;9.43;83.38;96141.09;5039917;28;20128;-67
2024/01/18 09:47:15;;;;;;;0.45;0.45;;;;;;;8.35;83.09;95981.69;5039362;28;20612;-67
2024/01/18 09:49:43;;;;;;;0.50;0.50;;;;;;;9.39;82.46;96151.34;5039781;28;20057;-67
2024/01/18 09:52:11;;;;;;;0.40;0.40;;;;;;;9.07;82.49;96054.41;5039723;28;20120;-67
2024/01/18 09:54:38;;;;;;;0.45;0.45;;;;;;;9.16;82.78;96069.47;5038487;28;20045;-67
2024/01/18 09:57:10;;;;;;;0.47;0.47;;;;;;;9.69;82.85;96119.53;5039023;28;20056;-68
2024/01/18 09:59:41;;;;;;;0.40;0.40;;;;;;;9.63;83.10;96121.06;5039075;28;20095;-67
2024/01/18 10:02:08;;;;;;;0.50;0.50;;;;;;;9.54;83.86;96117.88;5039346;28;20057;-67
2024/01/18 10:04:36;;;;;;;0.50;0.50;;;;;;;9.22;83.57;96061.59;5039451;28;20073;-68
2024/01/18 10:07:04;;;;;;;0.40;0.40;;;;;;;9.21;83.57;96054.50;5054438;28;20603;-67
2024/01/18 10:09:31;;;;;;;0.40;0.40;;;;;;;9.32;83.31;96063.66;5054607;28;20115;-69
2024/01/18 10:11:58;;;;;;;0.40;0.40;;;;;;;8.42;83.59;95954.16;5025902;28;20467;-66
2024/01/18 10:14:42;;;;;;;0.50;0.50;;;;;;;9.65;83.31;96117.91;5025720;28;20325;-65
2024/01/18 10:17:21;;;;;;;0.40;0.40;;;;;;;9.53;83.47;96102.44;5025454;28;20064;-69
2024/01/18 10:19:50;;;;;;;0.50;0.50;;;;;;;9.28;83.69;96051.75;5025758;28;20492;-67
2024/01/18 10:22:18;;;;;;;0.50;0.50;;;;;;;9.77;83.71;96101.78;5025934;28;20103;-66
2024/01/18 10:24:45;;;;;;;0.50;0.50;;;;;;;9.84;84.07;96145.28;5026042;28;20083;-66
2024/01/18 10:27:12;;;;;;;0.45;0.45;;;;;;;9.60;83.22;96063.78;5023959;28;20058;-69
2024/01/18 10:29:40;;;;;;;0.47;0.47;;;;;;;9.94;82.58;96094.75;5026009;28;20053;-66
2024/01/18 10:32:07;;;;;;;0.50;0.50;;;;;;;9.31;82.05;95986.66;5024352;28;20087;-66
2024/01/18 10:34:37;;;;;;;0.40;0.40;;;;;;;9.36;82.38;96014.69;5025470;28;20098;-67
2024/01/18 10:37:08;;;;;;;0.50;0.50;;;;;;;9.93;82.13;96073.78;5025394;28;20471;-67
2024/01/18 10:39:42;;;;;;;0.40;0.40;;;;;;;9.93;81.65;96074.59;5024649;28;20143;-68
2024/01/18 10:42:10;;;;;;;0.40;0.40;;;;;;;8.98;85.32;96023.56;5042053;28;20118;-67
2024/01/18 10:44:45;;;;;;;0.50;0.50;;;;;;;8.58;89.15;96031.97;5045546;28;20060;-67
2024/01/18 10:47:13;;;;;;;0.40;0.40;;;;;;;7.97;91.83;96017.94;5045173;28;20524;-67
2024/01/18 10:49:43;;;;;;;0.40;0.40;;;;;;;8.46;92.19;96035.00;5028259;28;20099;-68
2024/01/18 10:52:12;;;;;;;0.40;0.40;;;;;;;8.41;91.24;95966.38;5045374;28;20049;-67
2024/01/18 10:54:40;;;;;;;0.47;0.47;;;;;;;9.44;90.45;96063.31;5044288;28;20289;-66
2024/01/18 10:57:21;;;;;;;0.43;0.43;;;;;;;9.80;89.43;96042.94;5045316;28;20045;-65
2024/01/18 10:59:48;;;;;;;0.50;0.50;;;;;;;9.07;87.79;95883.16;5044652;28;20559;-67
2024/01/18 11:02:16;;;;;;;0.40;0.40;;;;;;;10.07;86.06;96002.75;5043955;28;20134;-65
2024/01/18 11:04:46;;;;;;;0.40;0.40;;;;;;;10.58;85.44;96033.66;5044960;28;20500;-65
2024/01/18 11:07:15;;;;;;;0.50;0.50;;;;;;;10.28;84.11;95964.03;5044537;28;20150;-67
2024/01/18 11:09:42;;;;;;;0.50;0.50;;;;;;;10.79;81.83;95994.09;5045324;28;20058;-67
2024/01/18 11:12:13;;;;;;;0.50;0.50;;;;;;;11.26;82.29;96001.13;5043693;28;20060;-66
2024/01/18 11:14:42;;;;;;;0.60;0.60;;;;;;;10.30;79.59;95850.97;5042696;28;20530;-65
2024/01/18 11:17:12;;;;;;;0.50;0.50;;;;;;;11.30;78.65;96013.00;5044567;28;20057;-67
2024/01/18 11:19:44;;;;;;;0.50;0.50;;;;;;;11.41;78.41;96013.78;5045545;28;20114;-67
2024/01/18 11:22:23;;;;;;;0.40;0.40;;;;;;;11.48;78.51;96008.19;5043845;28;20048;-66
2024/01/18 11:24:49;;;;;;;0.50;0.50;;;;;;;11.27;77.83;95969.47;5043531;28;20131;-65
2024/01/18 11:27:17;;;;;;;0.60;0.60;;;;;;;11.17;78.02;95931.47;5044598;28;20055;-66
2024/01/18 11:29:45;;;;;;;0.50;0.50;;;;;;;11.75;76.70;95989.91;5045067;28;20060;-66
2024/01/18 11:32:14;;;;;;;0.60;0.60;;;;;;;11.55;76.46;95930.53;5044346;28;20143;-66
2024/01/18 11:34:41;;;;;;;0.50;0.50;;;;;;;11.06;76.00;95850.34;5044799;28;20055;-65
2024/01/18 11:37:11;;;;;;;0.50;0.50;;;;;;;11.99;75.52;95978.69;5044228;28;20057;-68
2024/01/18 11:39:47;;;;;;;0.50;0.50;;;;;;;11.97;76.38;95983.03;5044879;28;20053;-67
2024/01/18 11:42:19;;;;;;;0.50;0.50;;;;;;;11.97;76.63;95969.16;5027143;28;20060;-67